Time,TemperatureF,DewpointF,PressureIn,WindDirection,WindDirectionDegrees,WindSpeedMPH,WindSpeedGustMPH,Humidity,HourlyPrecipIn,Conditions,Clouds,dailyrainin,SoftwareType,DateUTC
2013-01-13 00:09:00,55.2,54.0,29.99,ENE,74,1.0,2.0,97,0.00,,,0.01,weatherlink.com 1.10,2013-01-13 05:09:00,
2013-01-13 00:24:00,54.9,54.0,29.98,ENE,74,0.0,2.0,97,0.00,,,0.01,weatherlink.com 1.10,2013-01-13 05:24:00,
2013-01-13 00:39:00,55.3,55.0,29.99,ENE,74,0.0,1.0,98,0.00,,,0.01,weatherlink.com 1.10,2013-01-13 05:39:00,
2013-01-13 00:54:00,55.7,55.0,29.99,ENE,74,0.0,1.0,98,0.00,,,0.01,weatherlink.com 1.10,2013-01-13 05:54:00,
2013-01-13 01:09:00,56.1,56.0,29.99,ENE,74,0.0,2.0,98,0.00,,,0.01,weatherlink.com 1.10,2013-01-13 06:09:00,
2013-01-13 01:24:00,55.9,55.0,29.98,ENE,74,0.0,2.0,98,0.00,,,0.00,weatherlink.com 1.10,2013-01-13 06:24:00,
2013-01-13 01:39:00,55.4,55.0,29.99,ENE,74,0.0,2.0,98,0.00,,,0.00,weatherlink.com 1.10,2013-01-13 06:39:00,
2013-01-13 01:54:00,55.6,55.0,29.99,ENE,74,0.0,1.0,98,0.00,,,0.00,weatherlink.com 1.10,2013-01-13 06:54:00,
2013-01-13 02:09:00,55.1,55.0,29.99,ENE,74,0.0,0.0,98,0.00,,,0.00,weatherlink.com 1.10,2013-01-13 07:09:00,
2013-01-13 02:24:00,54.9,54.0,29.99,ENE,74,0.0,0.0,98,0.00,,,0.00,weatherlink.com 1.10,2013-01-13 07:24:00,
2013-01-13 02:39:00,54.4,54.0,29.99,ENE,74,0.0,1.0,98,0.00,,,0.00,weatherlink.com 1.10,2013-01-13 07:39:00,
2013-01-13 02:54:00,54.3,54.0,29.98,WNW,302,0.0,3.0,98,0.00,,,0.00,weatherlink.com 1.10,2013-01-13 07:54:00,
2013-01-13 03:09:00,54.7,54.0,29.98,WNW,302,0.0,2.0,98,0.00,,,0.00,weatherlink.com 1.10,2013-01-13 08:09:00,
2013-01-13 03:24:00,55.8,55.0,29.98,WNW,302,0.0,1.0,98,0.00,,,0.00,weatherlink.com 1.10,2013-01-13 08:24:00,
2013-01-13 03:39:00,56.6,56.0,29.98,WNW,302,0.0,2.0,98,0.00,,,0.00,weatherlink.com 1.10,2013-01-13 08:39:00,
2013-01-13 03:54:00,57.1,57.0,29.98,WNW,302,0.0,1.0,98,0.00,,,0.00,weatherlink.com 1.10,2013-01-13 08:54:00,
2013-01-13 04:09:00,56.7,56.0,29.97,WNW,302,0.0,1.0,98,0.00,,,0.00,weatherlink.com 1.10,2013-01-13 09:09:00,
2013-01-13 04:24:00,57.0,57.0,29.97,WNW,302,0.0,1.0,98,0.00,,,0.00,weatherlink.com 1.10,2013-01-13 09:24:00,
2013-01-13 04:39:00,57.2,57.0,29.97,West,273,1.0,2.0,98,0.00,,,0.00,weatherlink.com 1.10,2013-01-13 09:39:00,
2013-01-13 04:54:00,57.5,57.0,29.97,WSW,254,0.0,3.0,98,0.00,,,0.00,weatherlink.com 1.10,2013-01-13 09:54:00,
2013-01-13 05:09:00,57.6,57.0,29.96,WSW,246,0.0,1.0,98,0.00,,,0.00,weatherlink.com 1.10,2013-01-13 10:09:00,
2013-01-13 05:24:00,57.7,57.0,29.96,SW,220,0.0,3.0,98,0.00,,,0.00,weatherlink.com 1.10,2013-01-13 10:24:00,
2013-01-13 05:39:00,57.8,57.0,29.96,SW,221,0.0,3.0,98,0.00,,,0.00,weatherlink.com 1.10,2013-01-13 10:39:00,
2013-01-13 05:54:00,57.8,57.0,29.97,SSW,209,2.0,4.0,98,0.00,,,0.00,weatherlink.com 1.10,2013-01-13 10:54:00,
2013-01-13 06:09:00,57.8,57.0,29.96,SSW,206,4.0,6.0,98,0.00,,,0.00,weatherlink.com 1.10,2013-01-13 11:09:00,
2013-01-13 06:24:00,57.9,57.0,29.97,SW,229,3.0,5.0,98,0.00,,,0.00,weatherlink.com 1.10,2013-01-13 11:24:00,
2013-01-13 06:39:00,58.0,58.0,29.98,South,184,3.0,7.0,98,0.00,,,0.00,weatherlink.com 1.10,2013-01-13 11:39:00,
2013-01-13 06:54:00,58.0,57.0,29.98,SW,218,0.0,6.0,97,0.00,,,0.00,weatherlink.com 1.10,2013-01-13 11:54:00,
2013-01-13 07:09:00,58.0,57.0,29.99,SSW,196,1.0,6.0,97,0.00,,,0.00,weatherlink.com 1.10,2013-01-13 12:09:00,
2013-01-13 07:24:00,58.0,57.0,29.99,SSW,194,2.0,6.0,97,0.00,,,0.00,weatherlink.com 1.10,2013-01-13 12:24:00,
2013-01-13 07:39:00,57.9,57.0,29.99,SW,225,3.0,6.0,96,0.00,,,0.00,weatherlink.com 1.10,2013-01-13 12:39:00,
2013-01-13 07:54:00,58.1,57.0,30.00,SSW,202,4.0,4.0,97,0.00,,,0.00,weatherlink.com 1.10,2013-01-13 12:54:00,
2013-01-13 08:09:00,58.4,57.0,30.01,SSW,200,3.0,4.0,96,0.00,,,0.00,weatherlink.com 1.10,2013-01-13 13:09:00,
2013-01-13 08:24:00,58.6,58.0,30.01,SW,215,1.0,4.0,96,0.00,,,0.00,weatherlink.com 1.10,2013-01-13 13:24:00,
2013-01-13 08:40:00,58.8,58.0,30.01,SSW,209,2.0,5.0,96,0.00,,,0.00,weatherlink.com 1.10,2013-01-13 13:40:00,
2013-01-13 08:55:00,58.7,58.0,30.02,SW,236,2.0,5.0,96,0.00,,,0.00,weatherlink.com 1.10,2013-01-13 13:55:00,
2013-01-13 09:10:00,59.0,58.0,30.02,SSE,161,1.0,4.0,96,0.00,,,0.00,weatherlink.com 1.10,2013-01-13 14:10:00,
2013-01-13 09:25:00,59.7,59.0,30.02,SSW,212,2.0,5.0,96,0.00,,,0.00,weatherlink.com 1.10,2013-01-13 14:25:00,
2013-01-13 09:40:00,60.2,59.0,30.02,WSW,240,3.0,6.0,95,0.00,,,0.00,weatherlink.com 1.10,2013-01-13 14:40:00,
2013-01-13 09:55:00,60.5,59.0,30.02,SW,215,3.0,7.0,96,0.00,,,0.00,weatherlink.com 1.10,2013-01-13 14:55:00,
2013-01-13 10:10:00,60.8,59.0,30.02,South,171,6.0,8.0,95,0.00,,,0.00,weatherlink.com 1.10,2013-01-13 15:10:00,
2013-01-13 10:25:00,61.6,60.0,30.02,South,176,9.0,12.0,94,0.00,,,0.00,weatherlink.com 1.10,2013-01-13 15:25:00,
2013-01-13 10:40:00,62.5,61.0,30.02,SW,218,9.0,10.0,93,0.00,,,0.00,weatherlink.com 1.10,2013-01-13 15:40:00,
2013-01-13 10:55:00,63.4,61.0,30.01,SE,138,3.0,11.0,91,0.00,,,0.00,weatherlink.com 1.10,2013-01-13 15:55:00,
2013-01-13 11:10:00,64.0,61.0,30.00,South,178,2.0,10.0,90,0.00,,,0.00,weatherlink.com 1.10,2013-01-13 16:10:00,
2013-01-13 11:25:00,66.0,62.0,29.99,SSW,209,5.0,9.0,87,0.00,,,0.00,weatherlink.com 1.10,2013-01-13 16:25:00,
2013-01-13 11:40:00,66.8,62.0,29.98,SW,220,10.0,16.0,84,0.00,,,0.00,weatherlink.com 1.10,2013-01-13 16:40:00,
2013-01-13 11:55:00,67.3,62.0,29.97,SW,229,7.0,15.0,83,0.00,,,0.00,weatherlink.com 1.10,2013-01-13 16:55:00,
2013-01-13 12:10:00,67.2,61.0,29.97,SW,219,6.0,17.0,81,0.00,,,0.00,weatherlink.com 1.10,2013-01-13 17:10:00,
2013-01-13 12:25:00,68.1,62.0,29.97,SSW,192,5.0,14.0,80,0.00,,,0.00,weatherlink.com 1.10,2013-01-13 17:25:00,
2013-01-13 12:40:00,68.2,61.0,29.95,SW,234,11.0,12.0,79,0.00,,,0.00,weatherlink.com 1.10,2013-01-13 17:40:00,
2013-01-13 12:55:00,68.3,61.0,29.95,SSW,211,4.0,15.0,78,0.00,,,0.00,weatherlink.com 1.10,2013-01-13 17:55:00,
2013-01-13 13:10:00,69.1,62.0,29.95,SW,221,9.0,18.0,77,0.00,,,0.00,weatherlink.com 1.10,2013-01-13 18:10:00,
2013-01-13 13:25:00,68.4,62.0,29.95,SW,233,5.0,18.0,79,0.00,,,0.00,weatherlink.com 1.10,2013-01-13 18:25:00,
2013-01-13 13:40:00,68.5,61.0,29.94,WSW,237,8.0,14.0,78,0.00,,,0.00,weatherlink.com 1.10,2013-01-13 18:40:00,
2013-01-13 13:55:00,68.4,61.0,29.93,West,262,8.0,14.0,78,0.00,,,0.00,weatherlink.com 1.10,2013-01-13 18:55:00,
2013-01-13 14:10:00,68.2,61.0,29.94,SW,236,10.0,16.0,78,0.00,,,0.00,weatherlink.com 1.10,2013-01-13 19:10:00,
2013-01-13 14:25:00,68.3,62.0,29.94,WSW,242,6.0,17.0,79,0.00,,,0.00,weatherlink.com 1.10,2013-01-13 19:25:00,
2013-01-13 14:40:00,68.5,61.0,29.94,SW,217,11.0,16.0,78,0.00,,,0.00,weatherlink.com 1.10,2013-01-13 19:40:00,
2013-01-13 14:55:00,68.6,62.0,29.94,WSW,244,6.0,14.0,78,0.00,,,0.00,weatherlink.com 1.10,2013-01-13 19:55:00,
2013-01-13 15:10:00,69.2,61.0,29.95,SW,215,6.0,13.0,76,0.00,,,0.00,weatherlink.com 1.10,2013-01-13 20:10:00,
2013-01-13 15:25:00,68.8,61.0,29.95,SSW,213,8.0,16.0,77,0.00,,,0.00,weatherlink.com 1.10,2013-01-13 20:25:00,
2013-01-13 15:40:00,68.9,61.0,29.95,WSW,244,8.0,18.0,77,0.00,,,0.00,weatherlink.com 1.10,2013-01-13 20:40:00,
2013-01-13 15:55:00,68.7,61.0,29.95,SW,229,13.0,14.0,77,0.00,,,0.00,weatherlink.com 1.10,2013-01-13 20:55:00,
2013-01-13 16:10:00,68.3,61.0,29.95,SW,230,13.0,14.0,78,0.00,,,0.00,weatherlink.com 1.10,2013-01-13 21:10:00,
2013-01-13 16:25:00,68.0,61.0,29.95,SSW,205,7.0,16.0,78,0.00,,,0.00,weatherlink.com 1.10,2013-01-13 21:25:00,
2013-01-13 16:40:00,67.8,60.0,29.96,SW,227,6.0,16.0,77,0.00,,,0.00,weatherlink.com 1.10,2013-01-13 21:40:00,
2013-01-13 16:55:00,67.3,60.0,29.97,SSW,213,5.0,10.0,78,0.00,,,0.00,weatherlink.com 1.10,2013-01-13 21:55:00,
2013-01-13 17:10:00,66.8,60.0,29.97,SW,227,3.0,10.0,80,0.00,,,0.00,weatherlink.com 1.10,2013-01-13 22:10:00,
2013-01-13 17:25:00,66.2,60.0,29.97,WSW,248,3.0,5.0,81,0.00,,,0.00,weatherlink.com 1.10,2013-01-13 22:25:00,
2013-01-13 17:40:00,65.6,60.0,29.97,WSW,238,2.0,6.0,82,0.00,,,0.00,weatherlink.com 1.10,2013-01-13 22:40:00,
2013-01-13 17:55:00,64.8,60.0,29.97,WSW,244,0.0,3.0,83,0.00,,,0.00,weatherlink.com 1.10,2013-01-13 22:55:00,
2013-01-13 18:10:00,63.0,59.0,29.97,WSW,244,0.0,1.0,85,0.00,,,0.00,weatherlink.com 1.10,2013-01-13 23:10:00,
2013-01-13 18:25:00,61.9,59.0,29.96,SW,217,2.0,2.0,90,0.00,,,0.00,weatherlink.com 1.10,2013-01-13 23:25:00,
2013-01-13 18:40:00,60.7,58.0,29.96,SW,217,1.0,2.0,89,0.00,,,0.00,weatherlink.com 1.10,2013-01-13 23:40:00,
2013-01-13 18:55:00,59.7,57.0,29.97,SW,217,0.0,2.0,91,0.00,,,0.00,weatherlink.com 1.10,2013-01-13 23:55:00,
2013-01-13 19:10:00,58.9,57.0,29.96,SW,217,1.0,2.0,94,0.00,,,0.00,weatherlink.com 1.10,2013-01-14 00:10:00,
2013-01-13 19:25:00,58.4,57.0,29.97,SW,231,0.0,2.0,94,0.00,,,0.00,weatherlink.com 1.10,2013-01-14 00:25:00,
2013-01-13 19:40:00,58.2,57.0,29.97,SW,231,0.0,0.0,95,0.00,,,0.00,weatherlink.com 1.10,2013-01-14 00:40:00,
2013-01-13 19:55:00,57.8,56.0,29.96,SW,231,0.0,2.0,95,0.00,,,0.00,weatherlink.com 1.10,2013-01-14 00:55:00,
2013-01-13 20:10:00,57.3,56.0,29.96,SW,231,0.0,1.0,96,0.00,,,0.00,weatherlink.com 1.10,2013-01-14 01:10:00,
2013-01-13 20:25:00,57.3,56.0,29.95,West,280,0.0,2.0,96,0.00,,,0.00,weatherlink.com 1.10,2013-01-14 01:25:00,
2013-01-13 20:40:00,56.8,55.0,29.95,West,280,0.0,1.0,95,0.00,,,0.00,weatherlink.com 1.10,2013-01-14 01:40:00,
2013-01-13 20:55:00,56.3,55.0,29.96,West,280,0.0,0.0,96,0.00,,,0.00,weatherlink.com 1.10,2013-01-14 01:55:00,
2013-01-13 21:10:00,56.1,55.0,29.96,West,280,1.0,2.0,96,0.00,,,0.00,weatherlink.com 1.10,2013-01-14 02:10:00,
2013-01-13 21:25:00,56.7,56.0,29.96,West,280,0.0,2.0,97,0.00,,,0.00,weatherlink.com 1.10,2013-01-14 02:25:00,
2013-01-13 21:40:00,56.8,56.0,29.96,West,280,0.0,2.0,97,0.00,,,0.00,weatherlink.com 1.10,2013-01-14 02:40:00,
2013-01-13 21:56:00,56.8,56.0,29.96,West,280,2.0,2.0,97,0.00,,,0.00,weatherlink.com 1.10,2013-01-14 02:56:00,
2013-01-13 22:11:00,56.7,56.0,29.96,West,280,0.0,1.0,97,0.00,,,0.00,weatherlink.com 1.10,2013-01-14 03:11:00,
2013-01-13 22:26:00,56.8,56.0,29.96,West,280,0.0,0.0,97,0.00,,,0.00,weatherlink.com 1.10,2013-01-14 03:26:00,
2013-01-13 22:41:00,57.1,57.0,29.96,West,280,1.0,1.0,98,0.00,,,0.00,weatherlink.com 1.10,2013-01-14 03:41:00,
2013-01-13 22:56:00,57.2,57.0,29.96,West,280,0.0,1.0,98,0.00,,,0.00,weatherlink.com 1.10,2013-01-14 03:56:00,
2013-01-13 23:11:00,58.3,58.0,29.96,West,280,0.0,1.0,98,0.00,,,0.00,weatherlink.com 1.10,2013-01-14 04:11:00,
2013-01-13 23:26:00,59.2,59.0,29.96,West,280,1.0,2.0,98,0.00,,,0.00,weatherlink.com 1.10,2013-01-14 04:26:00,
2013-01-13 23:41:00,59.7,59.0,29.95,West,276,5.0,5.0,98,0.00,,,0.00,weatherlink.com 1.10,2013-01-14 04:41:00,
2013-01-13 23:56:00,60.5,60.0,29.95,WSW,254,0.0,3.0,97,0.00,,,0.00,weatherlink.com 1.10,2013-01-14 04:56:00,